Time;durP1;ratioP1;P1;durP2;ratioP2;P2;SDS_P1;SDS_P2;PMS_P1;PMS_P2;Temp;Humidity;BMP_temperature;BMP_pressure;BME280_temperature;BME280_humidity;BME280_pressure;Samples;Min_cycle;Max_cycle;Signal;HPM_P1;HPM_P2
2023/12/15 00:02:12;;;;;;;22.63;11.13;;;;;;;2.71;100.00;101916.19;5020791;28;20199;-74
2023/12/15 00:04:38;;;;;;;18.53;10.53;;;;;;;2.71;100.00;101916.19;5021292;28;20199;-74
2023/12/15 00:07:05;;;;;;;19.43;10.00;;;;;;;2.71;100.00;101918.78;5004795;28;20211;-75
2023/12/15 00:09:31;;;;;;;18.30;10.70;;;;;;;2.70;100.00;101928.41;5017884;28;20224;-74
2023/12/15 00:11:57;;;;;;;17.00;9.77;;;;;;;2.69;100.00;101929.44;5025318;28;20590;-74
2023/12/15 00:14:24;;;;;;;15.30;8.97;;;;;;;2.69;100.00;101929.44;5034352;28;20204;-74
2023/12/15 00:16:50;;;;;;;21.60;11.07;;;;;;;2.70;100.00;101933.63;5036951;28;20208;-73
2023/12/15 00:19:18;;;;;;;17.83;9.73;;;;;;;2.70;100.00;101938.84;5035033;28;20227;-73
2023/12/15 00:21:44;;;;;;;16.00;9.00;;;;;;;2.71;100.00;101932.59;5039120;28;20207;-71
2023/12/15 00:24:10;;;;;;;19.53;10.07;;;;;;;2.71;100.00;101934.44;5047920;28;20271;-72
2023/12/15 00:26:37;;;;;;;17.53;10.03;;;;;;;2.71;100.00;101935.19;5042506;28;20208;-72
2023/12/15 00:29:03;;;;;;;18.27;9.60;;;;;;;2.70;100.00;101944.06;5028823;28;20234;-72
2023/12/15 00:31:30;;;;;;;21.23;11.00;;;;;;;2.72;100.00;101959.47;5047245;28;20191;-74
2023/12/15 00:33:56;;;;;;;22.40;11.07;;;;;;;2.71;100.00;101963.88;5047713;28;20184;-72
2023/12/15 00:36:24;;;;;;;19.20;10.43;;;;;;;2.70;100.00;101967.53;5041034;28;20232;-71
2023/12/15 00:38:50;;;;;;;22.13;11.47;;;;;;;2.72;100.00;101972.50;5034332;28;20314;-72
2023/12/15 00:41:17;;;;;;;19.87;10.20;;;;;;;2.70;100.00;101975.34;5037695;28;20282;-74
2023/12/15 00:43:43;;;;;;;20.07;10.00;;;;;;;2.70;100.00;101975.34;5040350;28;20197;-74
2023/12/15 00:46:09;;;;;;;16.37;9.93;;;;;;;2.71;100.00;101983.97;5039124;28;20227;-73
2023/12/15 00:48:36;;;;;;;18.63;9.97;;;;;;;2.71;100.00;101989.19;5043733;28;20228;-74
2023/12/15 00:51:02;;;;;;;17.77;10.43;;;;;;;2.70;100.00;101990.22;5043289;28;20203;-73
2023/12/15 00:53:32;;;;;;;21.37;11.23;;;;;;;2.71;100.00;101999.63;5019955;28;20205;-74
2023/12/15 00:55:58;;;;;;;20.53;10.33;;;;;;;2.70;100.00;102006.66;5033897;28;20567;-74
2023/12/15 00:58:25;;;;;;;18.27;9.87;;;;;;;2.70;100.00;102016.31;5025916;28;20242;-74
2023/12/15 01:00:51;;;;;;;16.77;9.40;;;;;;;2.69;100.00;102015.50;5024253;28;20207;-74
2023/12/15 01:03:17;;;;;;;19.73;9.37;;;;;;;2.69;100.00;102019.94;5005940;28;20925;-72
2023/12/15 01:05:44;;;;;;;19.67;10.50;;;;;;;2.68;100.00;102023.56;5024547;28;20687;-74
2023/12/15 01:08:10;;;;;;;21.07;10.47;;;;;;;2.69;100.00;102027.78;5006571;28;20220;-74
2023/12/15 01:10:38;;;;;;;17.20;9.93;;;;;;;2.67;100.00;102030.59;5031823;28;20196;-75
2023/12/15 01:13:04;;;;;;;17.33;9.53;;;;;;;2.67;100.00;102030.59;5025375;28;20200;-74
2023/12/15 01:15:31;;;;;;;16.80;9.27;;;;;;;2.67;100.00;102035.03;5023270;28;20209;-74
2023/12/15 01:17:57;;;;;;;15.80;9.47;;;;;;;2.65;100.00;102037.84;5026957;28;20239;-73
2023/12/15 01:20:23;;;;;;;19.37;10.60;;;;;;;2.65;100.00;102043.06;5025274;28;20200;-73
2023/12/15 01:22:50;;;;;;;20.23;10.10;;;;;;;2.65;100.00;102055.34;5021070;28;20207;-74
2023/12/15 01:25:16;;;;;;;19.47;9.80;;;;;;;2.63;100.00;102060.78;5032768;28;20211;-74
2023/12/15 01:27:44;;;;;;;18.67;9.40;;;;;;;2.61;100.00;102051.63;5027047;28;20192;-74
2023/12/15 01:30:10;;;;;;;18.23;9.70;;;;;;;2.61;100.00;102054.22;5022379;28;20210;-75
2023/12/15 01:32:37;;;;;;;19.40;9.83;;;;;;;2.60;100.00;102065.69;5023340;28;20211;-73
2023/12/15 01:35:04;;;;;;;21.73;11.10;;;;;;;2.59;100.00;102064.88;5026586;28;20212;-75
2023/12/15 01:37:31;;;;;;;22.70;11.00;;;;;;;2.59;100.00;102072.72;5026867;28;20223;-74
2023/12/15 01:39:58;;;;;;;21.67;10.27;;;;;;;2.59;100.00;102067.50;5026373;28;20235;-74
2023/12/15 01:42:26;;;;;;;21.73;11.20;;;;;;;2.57;100.00;102085.19;5023582;28;20199;-74
2023/12/15 01:44:53;;;;;;;16.20;10.20;;;;;;;2.57;100.00;102080.00;5021081;28;20560;-74
2023/12/15 01:47:24;;;;;;;18.27;10.70;;;;;;;2.56;100.00;102077.59;5005372;28;20557;-74
2023/12/15 01:49:51;;;;;;;20.90;10.20;;;;;;;2.56;100.00;102080.22;5008295;28;20739;-73
2023/12/15 01:52:18;;;;;;;19.17;10.27;;;;;;;2.56;100.00;102080.22;5019958;28;20193;-75
2023/12/15 01:54:44;;;;;;;18.40;10.37;;;;;;;2.55;100.00;102081.25;5023688;28;20216;-75
2023/12/15 01:57:11;;;;;;;20.50;11.20;;;;;;;2.55;100.00;102087.25;5022335;28;20463;-74
2023/12/15 01:59:44;;;;;;;16.23;9.77;;;;;;;2.55;100.00;102092.44;5009347;28;20266;-74
2023/12/15 02:02:12;;;;;;;19.00;10.70;;;;;;;2.55;100.00;102082.03;5011203;28;20211;-74
2023/12/15 02:04:39;;;;;;;18.13;10.17;;;;;;;2.55;100.00;102084.63;5026177;28;20195;-74
2023/12/15 02:07:06;;;;;;;20.07;10.80;;;;;;;2.54;100.00;102088.28;5022715;28;20215;-75
2023/12/15 02:09:32;;;;;;;18.93;11.07;;;;;;;2.54;100.00;102088.28;5010186;28;20576;-74
2023/12/15 02:11:58;;;;;;;17.20;9.43;;;;;;;2.54;100.00;102092.72;5006809;28;20200;-75
2023/12/15 02:14:25;;;;;;;20.03;10.47;;;;;;;2.54;100.00;102098.69;5022809;28;20208;-74
2023/12/15 02:16:51;;;;;;;20.20;10.07;;;;;;;2.53;100.00;102093.72;5026186;28;20576;-75
2023/12/15 02:19:19;;;;;;;19.73;10.13;;;;;;;2.52;100.00;102105.19;5020636;28;20223;-74
2023/12/15 02:21:45;;;;;;;19.27;10.43;;;;;;;2.52;100.00;102100.75;5022544;28;20227;-75
2023/12/15 02:24:13;;;;;;;18.60;10.17;;;;;;;2.52;100.00;102103.38;5022013;28;20192;-75
2023/12/15 02:26:39;;;;;;;17.43;9.77;;;;;;;2.52;100.00;102113.00;5020777;28;20560;-73
2023/12/15 02:29:06;;;;;;;17.87;9.30;;;;;;;2.51;100.00;102109.63;5020486;28;20215;-74
2023/12/15 02:31:32;;;;;;;17.87;9.63;;;;;;;2.51;100.00;102117.44;5023960;28;20206;-75
2023/12/15 02:33:58;;;;;;;18.20;10.20;;;;;;;2.52;100.00;102118.22;5021911;28;20618;-75
2023/12/15 02:36:25;;;;;;;19.43;10.30;;;;;;;2.51;100.00;102120.03;5023749;28;20702;-75
2023/12/15 02:38:51;;;;;;;19.17;10.23;;;;;;;2.52;100.00;102123.41;5022264;28;20215;-74
2023/12/15 02:41:21;;;;;;;21.07;9.70;;;;;;;2.52;100.00;102123.41;5024271;28;20199;-73
2023/12/15 02:43:47;;;;;;;18.07;9.80;;;;;;;2.52;100.00;102126.03;5020860;28;20254;-75
2023/12/15 02:46:14;;;;;;;16.77;9.17;;;;;;;2.50;100.00;102121.03;5022818;28;20197;-71
2023/12/15 02:48:40;;;;;;;21.43;10.40;;;;;;;2.51;100.00;102127.06;5020505;28;20587;-72
2023/12/15 02:51:07;;;;;;;19.00;10.17;;;;;;;2.51;100.00;102130.47;5024236;28;20638;-73
2023/12/15 02:53:33;;;;;;;15.67;10.23;;;;;;;2.51;100.00;102127.06;5019484;28;20210;-72
2023/12/15 02:56:00;;;;;;;20.53;10.33;;;;;;;2.49;100.00;102132.50;5019796;28;20295;-73
2023/12/15 02:58:27;;;;;;;20.30;9.47;;;;;;;2.50;100.00;102135.91;5025317;28;20216;-73
2023/12/15 03:00:54;;;;;;;19.97;10.27;;;;;;;2.49;100.00;102126.50;5025280;28;20192;-73
2023/12/15 03:03:20;;;;;;;18.90;10.33;;;;;;;2.48;100.00;102127.50;5024357;28;20689;-74
2023/12/15 03:05:46;;;;;;;18.60;10.23;;;;;;;2.46;100.00;102138.19;5020354;28;20203;-71
2023/12/15 03:08:13;;;;;;;18.17;9.60;;;;;;;2.44;100.00;102144.69;5002851;28;20516;-73
2023/12/15 03:10:39;;;;;;;17.80;10.03;;;;;;;2.42;100.00;102152.72;5025681;28;20204;-73
2023/12/15 03:13:06;;;;;;;16.27;9.23;;;;;;;2.41;100.00;102148.53;5025888;28;20212;-72
2023/12/15 03:15:33;;;;;;;20.67;10.87;;;;;;;2.41;100.00;102152.94;5026372;28;20262;-74
2023/12/15 03:18:00;;;;;;;17.53;9.80;;;;;;;2.38;100.00;102154.19;5004997;28;20247;-74
2023/12/15 03:20:26;;;;;;;17.43;9.63;;;;;;;2.37;100.00;102154.44;5020897;28;20208;-73
2023/12/15 03:22:53;;;;;;;19.70;10.43;;;;;;;2.37;100.00;102154.44;5016210;28;20270;-75
2023/12/15 03:25:20;;;;;;;20.20;9.60;;;;;;;2.36;100.00;102155.47;5021457;28;20242;-75
2023/12/15 03:27:46;;;;;;;18.60;10.27;;;;;;;2.34;100.00;102168.72;5004063;28;20220;-74
2023/12/15 03:30:13;;;;;;;22.27;10.57;;;;;;;2.33;100.00;102171.59;5022038;28;20211;-74
2023/12/15 03:32:40;;;;;;;18.67;10.33;;;;;;;2.32;100.00;102176.00;5020533;28;20214;-74
2023/12/15 03:35:07;;;;;;;21.07;10.33;;;;;;;2.31;100.00;102184.03;5021889;28;20199;-74
2023/12/15 03:37:33;;;;;;;17.60;10.43;;;;;;;2.30;100.00;102185.06;5022176;28;20567;-73
2023/12/15 03:40:00;;;;;;;19.00;10.20;;;;;;;2.29;100.00;102186.09;5018531;28;20203;-75
2023/12/15 03:42:26;;;;;;;21.67;10.77;;;;;;;2.27;100.00;102183.72;5015596;28;21077;-74
2023/12/15 03:44:52;;;;;;;22.83;10.33;;;;;;;2.25;100.00;102183.16;5004141;28;20203;-75
2023/12/15 03:47:19;;;;;;;20.67;10.93;;;;;;;2.24;100.00;102194.59;5009662;28;20188;-75
2023/12/15 03:49:46;;;;;;;19.70;11.20;;;;;;;2.23;100.00;102195.63;5024080;28;20859;-75
2023/12/15 03:52:13;;;;;;;21.80;10.40;;;;;;;2.21;100.00;102195.06;5021173;28;20236;-75
2023/12/15 03:54:39;;;;;;;22.03;11.20;;;;;;;2.19;100.00;102207.50;5021431;28;20199;-75
2023/12/15 03:57:05;;;;;;;21.10;11.20;;;;;;;2.18;100.00;102205.16;5020769;28;20694;-74
2023/12/15 03:59:32;;;;;;;22.73;11.43;;;;;;;2.16;100.00;102200.16;5023033;28;20259;-75
2023/12/15 04:01:58;;;;;;;21.30;11.43;;;;;;;2.13;100.00;102205.81;5004097;28;20627;-74
2023/12/15 04:04:24;;;;;;;25.00;12.37;;;;;;;2.09;100.00;102194.31;5017964;28;20571;-75
2023/12/15 04:06:52;;;;;;;19.07;11.30;;;;;;;2.06;100.00;102209.59;5024209;28;20202;-74
2023/12/15 04:09:18;;;;;;;24.47;11.60;;;;;;;2.01;100.00;102212.88;5023095;28;20650;-75
2023/12/15 04:11:46;;;;;;;25.53;12.20;;;;;;;1.98;100.00;102220.38;5021513;28;20584;-75
2023/12/15 04:14:13;;;;;;;20.43;11.27;;;;;;;1.96;100.00;102219.78;5009382;28;20242;-73
2023/12/15 04:16:40;;;;;;;26.00;11.47;;;;;;;1.95;100.00;102220.81;5005819;28;20610;-74
2023/12/15 04:19:07;;;;;;;25.53;11.50;;;;;;;1.92;100.00;102227.28;5022517;28;20218;-73
2023/12/15 04:21:34;;;;;;;26.07;12.13;;;;;;;1.90;100.00;102218.91;5025342;28;20200;-74
2023/12/15 04:24:01;;;;;;;31.73;12.73;;;;;;;1.88;100.00;102225.34;5024318;28;20658;-72
2023/12/15 04:26:28;;;;;;;24.50;12.30;;;;;;;1.89;100.00;102226.94;5022907;28;20648;-73
2023/12/15 04:28:54;;;;;;;38.40;12.80;;;;;;;1.90;100.00;102233.72;5028627;28;20215;-73
2023/12/15 04:31:20;;;;;;;38.57;12.97;;;;;;;1.90;100.00;102224.13;5028949;28;20216;-73
2023/12/15 04:33:47;;;;;;;34.80;11.70;;;;;;;1.93;100.00;102228.06;5008235;28;20207;-73
2023/12/15 04:36:13;;;;;;;27.03;12.17;;;;;;;1.95;100.00;102236.44;5027860;28;20211;-73
2023/12/15 04:38:40;;;;;;;40.13;13.27;;;;;;;1.95;100.00;102241.66;5010794;28;20227;-74
2023/12/15 04:41:17;;;;;;;39.90;13.53;;;;;;;1.97;100.00;102244.84;5024828;28;20220;-73
2023/12/15 04:43:43;;;;;;;37.37;11.83;;;;;;;1.97;100.00;102243.00;5025672;28;20192;-73
2023/12/15 04:46:09;;;;;;;38.17;12.67;;;;;;;1.97;100.00;102247.44;5020210;28;20200;-73
2023/12/15 04:48:36;;;;;;;41.70;12.40;;;;;;;1.96;100.00;102253.66;5023900;28;20624;-73
2023/12/15 04:51:02;;;;;;;56.27;12.40;;;;;;;1.96;100.00;102262.28;5024357;28;20200;-73
2023/12/15 04:53:28;;;;;;;44.60;12.80;;;;;;;1.95;100.00;102255.47;5027290;28;20315;-73
2023/12/15 04:55:55;;;;;;;42.90;12.50;;;;;;;1.94;100.00;102256.50;5027388;28;20216;-74
2023/12/15 04:58:22;;;;;;;40.17;10.70;;;;;;;1.94;100.00;102260.91;5022813;28;20353;-74
2023/12/15 05:00:49;;;;;;;61.47;11.47;;;;;;;1.91;100.00;102262.16;5020213;28;20203;-74
2023/12/15 05:03:15;;;;;;;72.97;11.97;;;;;;;1.91;100.00;102261.34;5021649;28;20196;-72
2023/12/15 05:05:43;;;;;;;64.77;11.00;;;;;;;1.90;100.00;102265.78;5025676;28;20204;-74
2023/12/15 05:08:09;;;;;;;82.60;11.33;;;;;;;1.90;100.00;102272.78;5028705;28;20248;-72
2023/12/15 05:10:36;;;;;;;80.83;11.37;;;;;;;1.90;100.00;102278.00;5028249;28;20555;-74
2023/12/15 05:13:02;;;;;;;51.83;11.40;;;;;;;1.90;100.00;102272.78;5022892;28;20564;-73
2023/12/15 05:15:30;;;;;;;84.03;12.37;;;;;;;1.90;100.00;102284.03;5022505;28;20195;-73
2023/12/15 05:17:56;;;;;;;94.63;12.67;;;;;;;1.90;100.00;102281.41;5028407;28;20235;-74
2023/12/15 05:20:22;;;;;;;81.57;11.93;;;;;;;1.89;100.00;102287.66;5024058;28;20342;-72
2023/12/15 05:22:49;;;;;;;96.47;12.20;;;;;;;1.90;100.00;102296.25;5025908;28;20206;-74
2023/12/15 05:25:15;;;;;;;81.07;11.63;;;;;;;1.90;100.00;102304.06;5024584;28;20283;-74
2023/12/15 05:27:42;;;;;;;44.47;11.37;;;;;;;1.90;100.00;102296.25;5025844;28;20200;-73
2023/12/15 05:30:10;;;;;;;51.23;12.03;;;;;;;1.91;100.00;102296.03;5022030;28;20690;-74
2023/12/15 05:32:37;;;;;;;27.90;10.77;;;;;;;1.91;100.00;102306.44;5016162;28;20231;-72
2023/12/15 05:35:04;;;;;;;41.40;10.97;;;;;;;1.93;100.00;102319.25;5040664;28;20245;-73
2023/12/15 05:37:31;;;;;;;38.60;11.67;;;;;;;1.92;100.00;102315.84;5040265;28;20231;-73
2023/12/15 05:39:58;;;;;;;30.07;10.97;;;;;;;1.94;100.00;102323.44;5045013;28;20199;-74
2023/12/15 05:42:25;;;;;;;28.03;11.83;;;;;;;1.94;100.00;102324.22;5021250;28;20224;-74
2023/12/15 05:44:52;;;;;;;33.20;11.10;;;;;;;1.93;100.00;102325.22;5043137;28;20199;-74
2023/12/15 05:47:18;;;;;;;34.53;11.73;;;;;;;1.91;100.00;102322.06;5041798;28;20195;-74
2023/12/15 05:49:46;;;;;;;26.50;10.90;;;;;;;1.93;100.00;102329.66;5028311;28;20227;-74
2023/12/15 05:52:14;;;;;;;24.40;9.87;;;;;;;1.91;100.00;102337.69;5044647;28;20188;-74
2023/12/15 05:54:40;;;;;;;32.47;10.73;;;;;;;1.90;100.00;102338.72;5045816;28;20658;-74
2023/12/15 05:57:06;;;;;;;30.97;10.50;;;;;;;1.90;100.00;102341.31;5047401;28;20218;-73
2023/12/15 05:59:33;;;;;;;24.70;10.43;;;;;;;1.89;100.00;102350.16;5026088;28;20219;-74
2023/12/15 06:01:59;;;;;;;23.97;10.20;;;;;;;1.89;100.00;102349.34;5045125;28;20819;-74
2023/12/15 06:04:26;;;;;;;30.63;10.37;;;;;;;1.87;100.00;102343.59;5042427;28;20195;-73
2023/12/15 06:06:53;;;;;;;23.50;10.37;;;;;;;1.85;100.00;102350.81;5040840;28;20192;-73
2023/12/15 06:09:20;;;;;;;30.87;10.00;;;;;;;1.85;100.00;102356.03;5046326;28;20804;-72
2023/12/15 06:11:46;;;;;;;49.97;11.23;;;;;;;1.83;100.00;102355.47;5023278;28;20655;-74
2023/12/15 06:14:12;;;;;;;36.60;11.00;;;;;;;1.81;100.00;102355.69;5044917;28;20550;-75
2023/12/15 06:16:39;;;;;;;30.73;11.20;;;;;;;1.80;100.00;102355.91;5041449;28;20226;-73
2023/12/15 06:19:05;;;;;;;27.40;10.03;;;;;;;1.79;100.00;102360.34;5044872;28;20318;-73
2023/12/15 06:21:31;;;;;;;30.60;10.70;;;;;;;1.76;100.00;102363.38;5041118;28;20292;-73
2023/12/15 06:23:59;;;;;;;31.40;11.17;;;;;;;1.74;100.00;102372.44;5038690;28;20556;-73
2023/12/15 06:26:27;;;;;;;45.70;11.47;;;;;;;1.71;100.00;102373.66;5042271;28;20683;-74
2023/12/15 06:28:54;;;;;;;35.17;11.63;;;;;;;1.70;100.00;102379.09;5039428;28;20223;-74
2023/12/15 06:31:20;;;;;;;25.33;12.03;;;;;;;1.67;100.00;102379.56;5043857;28;20543;-73
2023/12/15 06:33:47;;;;;;;37.53;10.87;;;;;;;1.66;100.00;102391.00;5018841;28;20196;-74
2023/12/15 06:36:14;;;;;;;23.03;10.70;;;;;;;1.65;100.00;102402.41;5042850;28;20571;-73
2023/12/15 06:38:43;;;;;;;23.47;10.20;;;;;;;1.65;100.00;102389.38;5042588;28;20764;-73
2023/12/15 06:41:11;;;;;;;27.87;11.17;;;;;;;1.65;100.00;102391.97;5041418;28;20733;-74
2023/12/15 06:43:39;;;;;;;28.63;11.37;;;;;;;1.64;100.00;102396.41;5043049;28;20659;-74
2023/12/15 06:46:06;;;;;;;29.67;10.90;;;;;;;1.66;100.00;102402.19;5043396;28;20673;-73
2023/12/15 06:48:32;;;;;;;20.47;11.03;;;;;;;1.66;100.00;102406.63;5043145;28;20214;-73
2023/12/15 06:50:58;;;;;;;25.23;11.57;;;;;;;1.67;100.00;102410.78;5032162;28;20206;-74
2023/12/15 06:53:25;;;;;;;21.20;10.03;;;;;;;1.67;100.00;102411.56;5038709;28;20200;-73
2023/12/15 06:55:51;;;;;;;21.83;11.33;;;;;;;1.67;100.00;102422.00;5038762;28;20570;-72
2023/12/15 06:58:19;;;;;;;21.50;11.20;;;;;;;1.69;100.00;102430.38;5040086;28;20230;-74
2023/12/15 07:00:46;;;;;;;23.00;12.10;;;;;;;1.71;100.00;102427.56;5044549;28;20202;-74
2023/12/15 07:03:12;;;;;;;26.07;11.40;;;;;;;1.71;100.00;102425.75;5037489;28;20199;-74
2023/12/15 07:05:38;;;;;;;22.40;11.90;;;;;;;1.73;100.00;102426.34;5042901;28;20200;-72
2023/12/15 07:08:05;;;;;;;22.00;11.93;;;;;;;1.77;100.00;102437.09;5040853;28;20211;-74
2023/12/15 07:10:32;;;;;;;25.77;12.70;;;;;;;1.77;100.00;102430.06;5040553;28;20203;-74
2023/12/15 07:12:58;;;;;;;25.33;12.80;;;;;;;1.79;100.00;102437.66;5037419;28;20219;-74
2023/12/15 07:15:27;;;;;;;26.20;12.67;;;;;;;1.78;100.00;102439.47;5043722;28;20191;-74
2023/12/15 07:17:54;;;;;;;26.40;13.00;;;;;;;1.76;100.00;102449.31;5036230;28;20215;-73
2023/12/15 07:20:20;;;;;;;23.77;11.80;;;;;;;1.71;100.00;102445.78;5041266;28;20199;-74
2023/12/15 07:22:47;;;;;;;21.53;11.23;;;;;;;1.66;100.00;102456.09;5042348;28;20269;-73
2023/12/15 07:25:13;;;;;;;23.97;11.63;;;;;;;1.59;100.00;102457.97;5039227;28;20202;-73
2023/12/15 07:27:41;;;;;;;22.67;10.93;;;;;;;1.51;100.00;102468.69;5024081;28;20188;-73
2023/12/15 07:30:08;;;;;;;23.03;11.57;;;;;;;1.44;100.00;102476.56;5038718;28;20651;-74
2023/12/15 07:32:36;;;;;;;23.43;10.03;;;;;;;1.36;100.00;102486.50;5028259;28;20214;-74
2023/12/15 07:35:03;;;;;;;19.73;10.90;;;;;;;1.29;100.00;102485.75;5043722;28;20685;-74
2023/12/15 07:37:30;;;;;;;28.23;11.87;;;;;;;1.25;100.00;102485.41;5043808;28;20628;-73
2023/12/15 07:39:55;;;;;;;22.47;11.83;;;;;;;1.21;100.00;102480.84;5046330;28;20204;-74
2023/12/15 07:42:22;;;;;;;23.70;10.93;;;;;;;1.19;100.00;102467.28;5042140;28;20198;-73
2023/12/15 07:44:48;;;;;;;23.73;11.80;;;;;;;1.21;100.00;102481.63;5047154;28;20300;-74
2023/12/15 07:47:14;;;;;;;20.93;10.73;;;;;;;1.21;100.00;102481.63;5043495;28;20196;-73
2023/12/15 07:49:42;;;;;;;26.07;11.40;;;;;;;1.27;100.00;102479.97;5045491;28;20581;-74
2023/12/15 07:52:08;;;;;;;29.23;11.97;;;;;;;1.30;100.00;102485.53;5043899;28;20655;-73
2023/12/15 07:54:35;;;;;;;24.83;11.47;;;;;;;1.38;100.00;102485.25;5038540;28;20732;-73
2023/12/15 07:57:01;;;;;;;23.87;10.67;;;;;;;1.43;100.00;102495.81;5050304;28;20207;-74
2023/12/15 07:59:27;;;;;;;22.40;11.70;;;;;;;1.50;100.00;102504.31;5050027;28;20215;-74
2023/12/15 08:01:55;;;;;;;24.73;11.27;;;;;;;1.56;100.00;102507.88;5047993;28;20654;-74
2023/12/15 08:04:21;;;;;;;25.70;11.47;;;;;;;1.59;100.00;102520.44;5046356;28;20764;-74
2023/12/15 08:06:49;;;;;;;28.93;12.23;;;;;;;1.61;100.00;102527.03;5045761;28;20195;-73
2023/12/15 08:09:15;;;;;;;26.47;12.40;;;;;;;1.65;100.00;102530.78;5045605;28;20218;-71
2023/12/15 08:11:42;;;;;;;25.23;12.23;;;;;;;1.71;100.00;102542.91;5045002;28;20209;-74
2023/12/15 08:14:09;;;;;;;28.97;13.60;;;;;;;1.79;100.00;102549.63;5047711;28;20203;-73
2023/12/15 08:16:35;;;;;;;26.03;12.30;;;;;;;1.86;100.00;102550.34;5047411;28;20982;-74
2023/12/15 08:19:05;;;;;;;29.30;12.37;;;;;;;1.94;100.00;102547.44;5025121;28;20219;-73
2023/12/15 08:21:31;;;;;;;32.93;13.13;;;;;;;2.01;100.00;102535.94;5046144;28;20207;-73
2023/12/15 08:23:59;;;;;;;30.63;12.77;;;;;;;2.08;100.00;102544.44;5045241;28;20192;-74
2023/12/15 08:26:28;;;;;;;28.00;12.10;;;;;;;2.15;100.00;102550.38;5041237;28;20199;-74
2023/12/15 08:28:54;;;;;;;25.53;12.23;;;;;;;2.23;100.00;102554.47;5046699;28;20589;-74
2023/12/15 08:31:21;;;;;;;35.23;14.17;;;;;;;2.29;100.00;102553.59;5042911;28;20461;-74
2023/12/15 08:33:47;;;;;;;31.73;12.80;;;;;;;2.34;100.00;102549.28;5028705;28;20204;-74
2023/12/15 08:36:14;;;;;;;33.57;13.97;;;;;;;2.36;100.00;102552.47;5067840;28;20235;-70
2023/12/15 08:38:40;;;;;;;37.00;13.30;;;;;;;2.40;100.00;102553.63;5062769;28;20283;-70
2023/12/15 08:41:08;;;;;;;33.70;13.30;;;;;;;2.42;100.00;102564.59;5068664;28;20170;-71
2023/12/15 08:43:35;;;;;;;28.23;11.73;;;;;;;2.45;100.00;102568.59;5070250;28;20206;-71
2023/12/15 08:46:02;;;;;;;28.20;12.07;;;;;;;2.46;100.00;102564.94;5070846;28;20180;-71
2023/12/15 08:48:28;;;;;;;36.23;13.33;;;;;;;2.48;100.00;102565.50;5053882;28;20215;-71
2023/12/15 08:50:54;;;;;;;34.17;13.27;;;;;;;2.50;100.00;102566.88;5067802;28;20179;-71
2023/12/15 08:53:21;;;;;;;30.63;13.17;;;;;;;2.51;100.00;102558.06;5064171;28;20222;-74
2023/12/15 08:55:48;;;;;;;29.27;12.53;;;;;;;2.54;100.00;102555.00;5059101;28;20560;-72
2023/12/15 08:58:16;;;;;;;32.37;12.77;;;;;;;2.57;100.00;102559.78;5058366;28;20225;-72
2023/12/15 09:00:42;;;;;;;28.17;12.33;;;;;;;2.61;100.00;102558.31;5056666;28;20435;-74
2023/12/15 09:03:09;;;;;;;34.70;13.67;;;;;;;2.64;100.00;102551.84;5055096;28;20195;-73
2023/12/15 09:05:35;;;;;;;31.37;12.97;;;;;;;2.68;100.00;102563.41;5059265;28;20200;-73
2023/12/15 09:08:02;;;;;;;31.07;13.63;;;;;;;2.71;100.00;102560.34;5058393;28;20582;-72
2023/12/15 09:10:33;;;;;;;35.10;13.20;;;;;;;2.75;100.00;102566.72;5053907;28;20196;-73
2023/12/15 09:13:00;;;;;;;32.50;13.50;;;;;;;2.79;100.00;102583.47;5054694;28;20214;-71
2023/12/15 09:15:27;;;;;;;36.03;14.33;;;;;;;2.82;100.00;102577.81;5046136;28;20241;-73
2023/12/15 09:17:54;;;;;;;38.13;14.00;;;;;;;2.86;100.00;102576.38;5037036;28;20302;-71
2023/12/15 09:20:20;;;;;;;31.33;14.33;;;;;;;2.88;100.00;102580.34;5045624;28;20199;-71
2023/12/15 09:22:46;;;;;;;30.67;12.77;;;;;;;2.91;100.00;102577.25;5049467;28;20202;-73
2023/12/15 09:25:13;;;;;;;37.23;14.43;;;;;;;2.95;100.00;102575.78;5049110;28;20196;-73
2023/12/15 09:27:39;;;;;;;37.70;14.17;;;;;;;2.97;100.00;102575.56;5021856;28;20995;-74
2023/12/15 09:30:07;;;;;;;34.47;13.27;;;;;;;2.98;100.00;102575.34;5044831;28;20694;-74
2023/12/15 09:32:34;;;;;;;36.50;13.70;;;;;;;3.02;100.00;102580.91;5041807;28;20218;-74
2023/12/15 09:35:01;;;;;;;31.73;12.73;;;;;;;3.05;100.00;102567.38;5036438;28;20283;-74
2023/12/15 09:37:27;;;;;;;31.10;12.97;;;;;;;3.07;100.00;102573.19;5042129;28;20223;-73
2023/12/15 09:39:53;;;;;;;33.37;13.87;;;;;;;3.08;100.00;102572.97;5045319;28;20585;-74
2023/12/15 09:42:22;;;;;;;31.43;14.03;;;;;;;3.13;100.00;102574.91;5044853;28;20206;-74
2023/12/15 09:44:49;;;;;;;38.70;12.97;;;;;;;3.14;100.00;102573.88;5041276;28;20682;-73
2023/12/15 09:47:15;;;;;;;32.07;12.93;;;;;;;3.14;100.00;102574.66;5045662;28;20673;-74
2023/12/15 09:49:45;;;;;;;38.20;15.57;;;;;;;3.15;100.00;102594.53;5047780;28;20708;-73
2023/12/15 09:52:15;;;;;;;35.30;14.00;;;;;;;3.16;100.00;102600.56;5045183;28;20197;-73
2023/12/15 09:54:42;;;;;;;32.33;12.93;;;;;;;3.19;100.00;102602.69;5043574;28;20204;-73
2023/12/15 09:57:10;;;;;;;33.90;13.33;;;;;;;3.20;100.00;102614.72;5043526;28;20195;-74
2023/12/15 09:59:37;;;;;;;39.37;14.90;;;;;;;3.23;100.00;102619.50;5044794;28;20234;-74
2023/12/15 10:02:04;;;;;;;33.47;13.97;;;;;;;3.26;100.00;102617.22;5043496;28;20202;-74
2023/12/15 10:04:30;;;;;;;36.27;14.17;;;;;;;3.29;100.00;102616.78;5041071;28;20219;-73
2023/12/15 10:06:58;;;;;;;42.57;16.37;;;;;;;3.34;100.00;102614.28;5040579;28;20211;-73
2023/12/15 10:09:24;;;;;;;40.87;15.30;;;;;;;3.37;100.00;102615.66;5042241;28;20216;-71
2023/12/15 10:11:51;;;;;;;39.30;15.93;;;;;;;3.40;100.00;102610.75;5023621;28;20268;-71
2023/12/15 10:14:19;;;;;;;40.30;15.27;;;;;;;3.44;100.00;102617.13;5043022;28;20249;-74
2023/12/15 10:16:47;;;;;;;43.30;15.37;;;;;;;3.46;100.00;102611.63;5039621;28;20206;-73
2023/12/15 10:19:13;;;;;;;40.53;15.40;;;;;;;3.51;100.00;102609.13;5042278;28;20633;-72
2023/12/15 10:21:40;;;;;;;42.67;14.83;;;;;;;3.54;100.00;102621.75;5042788;28;20199;-73
2023/12/15 10:24:21;;;;;;;36.80;15.03;;;;;;;3.55;100.00;102631.16;5041126;28;20205;-74
2023/12/15 10:26:48;;;;;;;41.00;15.80;;;;;;;3.56;100.00;102638.78;5042036;28;20250;-71
2023/12/15 10:29:14;;;;;;;42.87;15.27;;;;;;;3.60;100.00;102631.28;5043316;28;20225;-74
2023/12/15 10:31:41;;;;;;;46.73;17.73;;;;;;;3.62;100.00;102626.59;5044411;28;20208;-73
2023/12/15 10:34:08;;;;;;;45.40;16.43;;;;;;;3.65;100.00;102619.13;5028597;28;20223;-73
2023/12/15 10:36:40;;;;;;;38.20;15.07;;;;;;;3.67;100.00;102626.72;5026607;28;20214;-73
2023/12/15 10:39:07;;;;;;;36.23;14.50;;;;;;;3.71;100.00;102633.06;5038673;28;20693;-72
2023/12/15 10:41:35;;;;;;;50.03;16.03;;;;;;;3.73;100.00;102637.03;5043283;28;20200;-73
2023/12/15 10:44:02;;;;;;;39.33;16.50;;;;;;;3.76;100.00;102646.25;5045912;28;20246;-73
2023/12/15 10:46:29;;;;;;;39.97;15.30;;;;;;;3.79;100.00;102637.97;5025962;28;20667;-73
2023/12/15 10:48:55;;;;;;;45.13;16.23;;;;;;;3.81;100.00;102636.72;5041595;28;20222;-73
2023/12/15 10:51:24;;;;;;;37.13;15.13;;;;;;;3.85;100.00;102631.81;5043905;28;20202;-73
2023/12/15 10:53:53;;;;;;;46.80;15.80;;;;;;;3.87;100.00;102632.34;5037006;28;20211;-73
2023/12/15 10:56:19;;;;;;;45.37;16.60;;;;;;;3.90;100.00;102640.56;5042840;28;20244;-74
2023/12/15 10:58:47;;;;;;;45.33;16.00;;;;;;;3.93;100.00;102639.28;5041299;28;20951;-72
2023/12/15 11:01:16;;;;;;;41.03;16.23;;;;;;;3.95;100.00;102638.00;5046295;28;20198;-73
2023/12/15 11:03:43;;;;;;;42.10;16.17;;;;;;;3.97;100.00;102643.81;5040533;28;20677;-74
2023/12/15 11:06:11;;;;;;;42.13;15.47;;;;;;;4.00;100.00;102650.41;5041851;28;20290;-72
2023/12/15 11:08:37;;;;;;;37.30;16.53;;;;;;;4.02;100.00;102637.91;5040442;28;20225;-73